Time;durP1;ratioP1;P1;durP2;ratioP2;P2;SDS_P1;SDS_P2;PMS_P1;PMS_P2;Temp;Humidity;BMP_temperature;BMP_pressure;BME280_temperature;BME280_humidity;BME280_pressure;Samples;Min_cycle;Max_cycle;Signal;HPM_P1;HPM_P2
2024/02/01 00:00:59;;;;;;;20.77;9.30;;;8.10;99.90;;;;;;5060121;28;20246;-43
2024/02/01 00:03:25;;;;;;;24.02;9.20;;;8.10;99.90;;;;;;5061896;28;20194;-39
2024/02/01 00:05:51;;;;;;;16.95;8.32;;;8.10;99.90;;;;;;5061447;28;20237;-44
2024/02/01 00:08:17;;;;;;;19.05;7.68;;;8.20;99.90;;;;;;5061875;28;20741;-42
2024/02/01 00:10:42;;;;;;;20.88;9.00;;;8.20;99.90;;;;;;5060776;28;20183;-42
2024/02/01 00:13:09;;;;;;;20.63;8.55;;;8.20;99.90;;;;;;5060065;28;20276;-40
2024/02/01 00:15:35;;;;;;;20.00;8.75;;;8.30;99.90;;;;;;5060834;28;20196;-41
2024/02/01 00:18:01;;;;;;;20.13;8.27;;;8.30;99.90;;;;;;5061519;28;20182;-48
2024/02/01 00:20:26;;;;;;;23.35;9.30;;;8.40;99.90;;;;;;5060495;28;20183;-38
2024/02/01 00:22:52;;;;;;;25.05;9.02;;;8.40;99.90;;;;;;5061985;28;20284;-39
2024/02/01 00:25:18;;;;;;;22.65;8.52;;;8.40;99.90;;;;;;5060621;28;20186;-44
2024/02/01 00:27:44;;;;;;;26.13;7.60;;;8.40;99.90;;;;;;5059464;28;20190;-43
2024/02/01 00:30:10;;;;;;;24.50;7.55;;;8.60;99.90;;;;;;5060378;28;20323;-43
2024/02/01 00:32:35;;;;;;;32.17;7.28;;;8.70;99.90;;;;;;5060700;28;20199;-46
2024/02/01 00:35:01;;;;;;;24.33;7.38;;;8.70;99.90;;;;;;5058569;28;20595;-42
2024/02/01 00:37:27;;;;;;;28.80;7.95;;;8.80;99.90;;;;;;5060392;28;20194;-45
2024/02/01 00:39:52;;;;;;;30.52;6.88;;;8.80;99.90;;;;;;5060088;28;20221;-43
2024/02/01 00:42:18;;;;;;;22.95;6.60;;;8.90;99.90;;;;;;5060980;28;20197;-44
2024/02/01 00:44:44;;;;;;;23.40;6.60;;;9.00;99.90;;;;;;5059825;28;20309;-47
2024/02/01 00:47:10;;;;;;;20.33;6.20;;;9.00;99.90;;;;;;5060283;28;20194;-39
2024/02/01 00:49:35;;;;;;;23.75;6.68;;;9.10;99.90;;;;;;5060391;28;20194;-46
2024/02/01 00:52:02;;;;;;;24.50;6.43;;;9.10;99.90;;;;;;5059481;28;20194;-46
2024/02/01 00:54:28;;;;;;;26.40;6.25;;;9.10;99.90;;;;;;5058974;28;20306;-44
2024/02/01 00:56:54;;;;;;;28.20;6.70;;;9.10;99.90;;;;;;5059472;28;20278;-39
2024/02/01 00:59:20;;;;;;;15.98;5.78;;;9.20;99.90;;;;;;5061200;28;20277;-45
2024/02/01 01:01:46;;;;;;;24.70;6.57;;;9.20;99.90;;;;;;5058159;28;20198;-43
2024/02/01 01:04:15;;;;;;;27.92;6.32;;;9.20;99.90;;;;;;5060239;28;20582;-39
2024/02/01 01:06:42;;;;;;;19.10;5.40;;;9.20;99.90;;;;;;5060281;28;20178;-41
2024/02/01 01:09:08;;;;;;;24.77;6.05;;;9.20;99.90;;;;;;5059492;28;20202;-44
2024/02/01 01:11:34;;;;;;;24.45;5.97;;;9.20;99.90;;;;;;5091216;28;21246;-43
2024/02/01 01:14:00;;;;;;;22.27;5.30;;;9.20;99.90;;;;;;5059875;28;20226;-48
2024/02/01 01:16:29;;;;;;;23.55;5.20;;;9.20;99.90;;;;;;5058572;28;20190;-40
2024/02/01 01:18:54;;;;;;;32.55;5.88;;;9.10;99.90;;;;;;5060537;28;20186;-44
2024/02/01 01:21:20;;;;;;;29.70;5.07;;;9.20;99.90;;;;;;5060501;28;20201;-45
2024/02/01 01:23:46;;;;;;;32.45;5.18;;;9.10;99.90;;;;;;5060583;28;20203;-42
2024/02/01 01:26:12;;;;;;;17.58;3.85;;;9.00;99.90;;;;;;5060223;28;20285;-42
2024/02/01 01:28:38;;;;;;;37.00;5.32;;;8.90;99.90;;;;;;5060151;28;20282;-44
2024/02/01 01:31:04;;;;;;;29.75;5.30;;;8.90;99.90;;;;;;5059450;28;20562;-42
2024/02/01 01:33:30;;;;;;;21.95;3.85;;;8.80;99.90;;;;;;5058745;28;20676;-39
2024/02/01 01:35:55;;;;;;;30.30;5.10;;;8.70;99.90;;;;;;5060005;28;20773;-42
2024/02/01 01:38:21;;;;;;;29.40;5.35;;;8.60;99.90;;;;;;5061222;28;20178;-42
2024/02/01 01:40:48;;;;;;;37.55;5.40;;;8.50;99.90;;;;;;5059736;28;20187;-44
2024/02/01 01:43:14;;;;;;;24.25;4.90;;;8.40;99.90;;;;;;5063705;28;20194;-38
2024/02/01 01:45:39;;;;;;;29.30;5.53;;;8.30;99.90;;;;;;5063952;28;20194;-38
2024/02/01 01:48:06;;;;;;;34.60;5.38;;;8.20;99.90;;;;;;5064719;28;20613;-42
2024/02/01 01:50:33;;;;;;;29.63;4.60;;;8.20;99.90;;;;;;5080158;28;20205;-42
2024/02/01 01:52:59;;;;;;;29.70;5.20;;;8.10;99.90;;;;;;5064495;28;20200;-41
2024/02/01 01:55:26;;;;;;;29.65;4.65;;;8.00;99.90;;;;;;5063373;28;20225;-42
2024/02/01 01:57:52;;;;;;;37.30;5.40;;;7.90;99.90;;;;;;5063818;28;20178;-44
2024/02/01 02:00:19;;;;;;;37.10;5.45;;;7.90;99.90;;;;;;5064251;28;20194;-38
2024/02/01 02:02:45;;;;;;;28.30;4.78;;;7.80;99.90;;;;;;5093825;28;20194;-42
2024/02/01 02:05:11;;;;;;;33.22;5.30;;;7.80;99.90;;;;;;5079717;28;20348;-42
2024/02/01 02:07:40;;;;;;;32.50;5.25;;;7.70;99.90;;;;;;5063722;28;20191;-46
2024/02/01 02:10:06;;;;;;;30.85;5.20;;;7.70;99.90;;;;;;5063155;28;20186;-41
2024/02/01 02:12:32;;;;;;;30.08;4.30;;;7.60;99.90;;;;;;5064798;28;20700;-39
2024/02/01 02:14:59;;;;;;;37.45;5.45;;;7.60;99.90;;;;;;5063692;28;20230;-43
2024/02/01 02:17:28;;;;;;;25.75;4.07;;;7.60;99.90;;;;;;5075571;28;20190;-42
2024/02/01 02:19:54;;;;;;;42.17;5.25;;;7.50;99.90;;;;;;5063512;28;20190;-43
2024/02/01 02:22:25;;;;;;;29.73;4.95;;;7.50;99.90;;;;;;5048658;28;20197;-41
2024/02/01 02:24:51;;;;;;;32.63;4.32;;;7.40;99.90;;;;;;5062471;28;20198;-41
2024/02/01 02:27:20;;;;;;;42.13;5.35;;;7.40;99.90;;;;;;5078044;28;20221;-42
2024/02/01 02:29:49;;;;;;;38.28;5.03;;;7.40;99.90;;;;;;5063346;28;20746;-41
2024/02/01 02:32:15;;;;;;;32.50;4.43;;;7.30;99.90;;;;;;5062520;28;21112;-43
2024/02/01 02:34:41;;;;;;;39.28;6.07;;;7.30;99.90;;;;;;5063074;28;20240;-40
2024/02/01 02:37:08;;;;;;;45.22;5.38;;;7.20;99.90;;;;;;5063373;28;20194;-46
2024/02/01 02:39:36;;;;;;;41.05;5.78;;;7.20;99.90;;;;;;5063394;28;20202;-42
2024/02/01 02:42:02;;;;;;;43.47;5.82;;;7.10;99.90;;;;;;5063051;28;20186;-44
2024/02/01 02:44:27;;;;;;;41.70;5.35;;;7.10;99.90;;;;;;5063432;28;20198;-41
2024/02/01 02:46:53;;;;;;;36.85;5.18;;;7.10;99.90;;;;;;5063177;28;20186;-43
2024/02/01 02:49:19;;;;;;;43.88;5.60;;;7.00;99.90;;;;;;5062668;28;20194;-42
2024/02/01 02:51:44;;;;;;;45.40;5.15;;;7.00;99.90;;;;;;5063441;28;20206;-44
2024/02/01 02:54:10;;;;;;;44.53;5.13;;;7.00;99.90;;;;;;5062029;28;20244;-43
2024/02/01 02:56:36;;;;;;;25.60;4.25;;;6.90;99.90;;;;;;5061755;28;20698;-44
2024/02/01 02:59:02;;;;;;;41.13;5.53;;;6.90;99.90;;;;;;5062779;28;20262;-44
2024/02/01 03:01:27;;;;;;;51.15;5.30;;;6.80;99.90;;;;;;5062516;28;20194;-43
2024/02/01 03:03:53;;;;;;;38.70;5.30;;;6.80;99.90;;;;;;5062358;28;20654;-39
2024/02/01 03:06:19;;;;;;;39.55;5.00;;;6.80;99.90;;;;;;5062366;28;20247;-43
2024/02/01 03:08:45;;;;;;;32.05;4.93;;;6.70;99.90;;;;;;5063293;28;20205;-40
2024/02/01 03:11:11;;;;;;;27.35;4.63;;;6.70;99.90;;;;;;5062229;28;20195;-43
2024/02/01 03:13:41;;;;;;;33.25;4.82;;;6.70;99.90;;;;;;5061529;28;20695;-39
2024/02/01 03:16:16;;;;;;;43.35;5.80;;;6.70;99.90;;;;;;5062474;28;20197;-42
2024/02/01 03:18:44;;;;;;;43.50;5.60;;;6.60;99.90;;;;;;5063113;28;20178;-45
2024/02/01 03:21:14;;;;;;;39.60;4.72;;;6.50;99.90;;;;;;5062496;28;20190;-43
2024/02/01 03:23:44;;;;;;;38.22;5.05;;;6.60;99.90;;;;;;5062148;28;20210;-46
2024/02/01 03:26:10;;;;;;;36.63;5.13;;;6.50;99.90;;;;;;5061822;28;20586;-39
2024/02/01 03:28:40;;;;;;;34.38;4.32;;;6.60;99.90;;;;;;5063066;28;20197;-46
2024/02/01 03:31:06;;;;;;;37.47;5.15;;;6.50;99.90;;;;;;5062317;28;20558;-38
2024/02/01 03:33:38;;;;;;;35.80;4.38;;;6.40;99.90;;;;;;5048095;28;20222;-43
2024/02/01 03:36:08;;;;;;;42.63;4.72;;;6.40;99.90;;;;;;5062243;28;20194;-41
2024/02/01 03:38:38;;;;;;;40.10;4.78;;;6.40;99.90;;;;;;5060821;28;21162;-40
2024/02/01 03:41:07;;;;;;;31.55;4.55;;;6.40;99.90;;;;;;5062101;28;20190;-40
2024/02/01 03:43:33;;;;;;;33.40;5.15;;;6.30;99.90;;;;;;5060670;28;20682;-42
2024/02/01 03:45:59;;;;;;;29.25;4.70;;;6.30;99.90;;;;;;5062146;28;20205;-42
2024/02/01 03:48:24;;;;;;;45.22;5.82;;;6.30;99.90;;;;;;5062108;28;20199;-40
2024/02/01 03:50:51;;;;;;;40.83;5.20;;;6.30;99.90;;;;;;5061988;28;20274;-40
2024/02/01 03:53:18;;;;;;;37.25;5.38;;;6.30;99.90;;;;;;5061683;28;20202;-40
2024/02/01 03:55:48;;;;;;;39.67;4.95;;;6.20;99.90;;;;;;5077618;28;20600;-46
2024/02/01 03:58:16;;;;;;;46.70;5.05;;;6.20;99.90;;;;;;5060451;28;20213;-45
2024/02/01 04:00:44;;;;;;;41.40;5.05;;;6.20;99.90;;;;;;5061158;28;20186;-43
2024/02/01 04:03:16;;;;;;;48.20;5.38;;;6.20;99.90;;;;;;5062020;28;20186;-40
2024/02/01 04:05:42;;;;;;;46.00;5.60;;;6.20;99.90;;;;;;5076821;28;20191;-41
2024/02/01 04:08:08;;;;;;;43.10;5.60;;;6.10;99.90;;;;;;5062163;28;20187;-41
2024/02/01 04:10:38;;;;;;;45.83;6.13;;;6.10;99.90;;;;;;5060512;28;20642;-40
2024/02/01 04:13:05;;;;;;;45.42;5.38;;;6.00;99.90;;;;;;5061240;28;20201;-42
2024/02/01 04:15:35;;;;;;;44.67;5.32;;;6.00;99.90;;;;;;5059772;28;20230;-43
2024/02/01 04:18:03;;;;;;;31.40;4.57;;;6.00;99.90;;;;;;5061718;28;20186;-45
2024/02/01 04:20:30;;;;;;;38.83;5.82;;;5.90;99.90;;;;;;5061411;28;20226;-42
2024/02/01 04:22:56;;;;;;;46.97;5.60;;;6.00;99.90;;;;;;5061564;28;20191;-43
2024/02/01 04:25:25;;;;;;;46.08;5.50;;;5.90;99.90;;;;;;5061537;28;20707;-43
2024/02/01 04:27:52;;;;;;;57.33;5.80;;;5.90;99.90;;;;;;5060872;28;20198;-38
2024/02/01 04:30:18;;;;;;;37.58;5.18;;;5.90;99.90;;;;;;5062073;28;20203;-40
2024/02/01 04:32:45;;;;;;;37.83;5.50;;;5.90;99.90;;;;;;5060894;28;20269;-40
2024/02/01 04:35:16;;;;;;;40.35;5.13;;;5.80;99.90;;;;;;5060989;28;20343;-41
2024/02/01 04:37:43;;;;;;;42.80;5.47;;;5.80;99.90;;;;;;5061986;28;20202;-44
2024/02/01 04:40:11;;;;;;;45.92;5.68;;;5.80;99.90;;;;;;5059518;28;20681;-44
2024/02/01 04:42:37;;;;;;;46.10;5.35;;;5.70;99.90;;;;;;5061626;28;20201;-40
2024/02/01 04:45:04;;;;;;;42.47;5.00;;;5.70;99.90;;;;;;5060030;28;20285;-43
2024/02/01 04:47:34;;;;;;;42.92;5.75;;;5.60;99.90;;;;;;5060936;28;20592;-46
2024/02/01 04:50:01;;;;;;;46.92;5.70;;;5.60;99.90;;;;;;5060079;28;20567;-41
2024/02/01 04:52:27;;;;;;;47.13;5.53;;;5.60;99.90;;;;;;5060777;28;20182;-41
2024/02/01 04:54:58;;;;;;;38.30;5.07;;;5.50;99.90;;;;;;5061085;28;20633;-45
2024/02/01 04:57:24;;;;;;;46.78;6.38;;;5.50;99.90;;;;;;5060879;28;20232;-44
2024/02/01 04:59:49;;;;;;;43.03;6.38;;;5.50;99.90;;;;;;5060999;28;20198;-41
2024/02/01 05:02:16;;;;;;;43.92;5.82;;;5.50;99.90;;;;;;5074748;28;20193;-45
2024/02/01 05:04:43;;;;;;;46.45;5.88;;;5.40;99.90;;;;;;5060917;28;21156;-38
2024/02/01 05:07:09;;;;;;;49.22;5.72;;;5.40;99.90;;;;;;5059746;28;20244;-40
2024/02/01 05:09:39;;;;;;;41.42;5.68;;;5.30;99.90;;;;;;5060447;28;20201;-43
2024/02/01 05:12:08;;;;;;;45.30;6.05;;;5.40;99.90;;;;;;5061209;28;20290;-41
2024/02/01 05:14:35;;;;;;;46.28;5.47;;;5.30;99.90;;;;;;5060694;28;20218;-41
2024/02/01 05:17:00;;;;;;;48.85;6.10;;;5.30;99.90;;;;;;5059509;28;20221;-38
2024/02/01 05:19:26;;;;;;;45.50;6.05;;;5.30;99.90;;;;;;5060339;28;20803;-44
2024/02/01 05:21:53;;;;;;;45.67;6.03;;;5.30;99.90;;;;;;5060866;28;20194;-47
2024/02/01 05:24:22;;;;;;;44.65;5.60;;;5.30;99.90;;;;;;5075986;28;21154;-42
2024/02/01 05:26:53;;;;;;;40.53;5.72;;;5.20;99.90;;;;;;5060333;28;20186;-39
2024/02/01 05:29:20;;;;;;;50.00;5.95;;;5.30;99.90;;;;;;5060812;28;20199;-42
2024/02/01 05:31:53;;;;;;;45.13;5.07;;;5.20;99.90;;;;;;5061001;28;20201;-45
2024/02/01 05:34:20;;;;;;;47.13;5.70;;;5.30;99.90;;;;;;5060485;28;20221;-46
2024/02/01 05:36:47;;;;;;;44.60;5.53;;;5.20;99.90;;;;;;5059732;28;20175;-40
2024/02/01 05:39:26;;;;;;;51.83;6.28;;;5.20;99.90;;;;;;5060526;28;20281;-42
2024/02/01 05:41:53;;;;;;;48.38;6.65;;;5.20;99.90;;;;;;5060833;28;20182;-47
2024/02/01 05:44:23;;;;;;;35.75;5.28;;;5.20;99.90;;;;;;5060425;28;20190;-41
2024/02/01 05:46:54;;;;;;;48.00;5.20;;;5.20;99.90;;;;;;5060472;28;20659;-41
2024/02/01 05:49:28;;;;;;;44.88;5.68;;;5.20;99.90;;;;;;5059900;28;20186;-37
2024/02/01 05:51:59;;;;;;;37.40;5.32;;;5.20;99.90;;;;;;5060472;28;20205;-42
2024/02/01 05:54:24;;;;;;;42.53;5.78;;;5.10;99.90;;;;;;5059298;28;20225;-42
2024/02/01 05:56:50;;;;;;;44.05;6.30;;;5.20;99.90;;;;;;5059733;28;20183;-40
2024/02/01 05:59:20;;;;;;;52.22;5.53;;;5.10;99.90;;;;;;5058026;28;20190;-45
2024/02/01 06:01:47;;;;;;;46.28;5.68;;;5.20;99.90;;;;;;5059213;28;20282;-43
2024/02/01 06:04:14;;;;;;;41.05;5.18;;;5.20;99.90;;;;;;5058764;28;20195;-41
2024/02/01 06:06:46;;;;;;;44.03;5.45;;;5.20;99.90;;;;;;5058617;28;20203;-38
2024/02/01 06:09:13;;;;;;;43.80;5.88;;;5.20;99.90;;;;;;5059536;28;20199;-48
2024/02/01 06:11:39;;;;;;;39.78;5.30;;;5.20;99.90;;;;;;5058757;28;20266;-41
2024/02/01 06:14:05;;;;;;;37.58;5.80;;;5.30;99.90;;;;;;5058527;28;20335;-41
2024/02/01 06:16:31;;;;;;;35.63;4.72;;;5.30;99.90;;;;;;5057456;28;20190;-43
2024/02/01 06:18:57;;;;;;;48.53;6.15;;;5.30;99.90;;;;;;5059673;28;20199;-45
2024/02/01 06:21:24;;;;;;;36.40;4.70;;;5.30;99.90;;;;;;5055932;28;21015;-44
2024/02/01 06:23:49;;;;;;;39.03;5.90;;;5.30;99.90;;;;;;5058807;28;20202;-43
2024/02/01 06:26:20;;;;;;;49.40;6.30;;;5.30;99.90;;;;;;5039467;28;20264;-46
2024/02/01 06:28:45;;;;;;;57.78;6.18;;;5.20;99.90;;;;;;5061495;28;20695;-41
2024/02/01 06:31:14;;;;;;;39.40;5.97;;;5.20;99.90;;;;;;5062579;28;20282;-44
2024/02/01 06:33:41;;;;;;;40.05;5.95;;;5.20;99.90;;;;;;5062427;28;20221;-44
2024/02/01 06:36:13;;;;;;;56.67;5.90;;;5.20;99.90;;;;;;5063209;28;20564;-41
2024/02/01 06:41:29;;;;;;;40.95;6.03;;;5.20;99.90;;;;;;5062535;28;20195;-42
2024/02/01 06:57:44;;;;;;;42.80;6.78;;;5.10;99.90;;;;;;5062748;28;20289;-42
2024/02/01 07:13:57;;;;;;;41.95;6.65;;;5.10;99.90;;;;;;5061360;28;20229;-40
2024/02/01 07:16:35;;;;;;;38.13;6.82;;;5.10;99.90;;;;;;5060644;28;20202;-41
2024/02/01 07:19:12;;;;;;;52.30;7.30;;;5.10;99.90;;;;;;5059247;28;20289;-43
2024/02/01 07:22:05;;;;;;;44.50;6.68;;;5.10;99.90;;;;;;5062230;28;20209;-40
2024/02/01 07:57:36;;;;;;;47.30;6.53;;;5.40;99.90;;;;;;5062092;28;21251;-44
2024/02/01 08:00:03;;;;;;;49.17;5.57;;;5.40;99.90;;;;;;5062066;28;20178;-41
2024/02/01 08:02:49;;;;;;;48.78;6.63;;;5.50;99.90;;;;;;5059897;28;20730;-40
2024/02/01 08:08:04;;;;;;;42.92;6.05;;;5.50;99.90;;;;;;5062008;28;20199;-42
2024/02/01 08:10:30;;;;;;;42.38;6.22;;;5.50;99.90;;;;;;5060612;28;20196;-45
2024/02/01 08:13:04;;;;;;;44.38;6.15;;;5.60;99.90;;;;;;5042416;28;20326;-41
2024/02/01 08:15:31;;;;;;;40.00;5.97;;;5.60;99.90;;;;;;5058354;28;20288;-46
2024/02/01 08:17:57;;;;;;;49.25;6.72;;;5.70;99.90;;;;;;5061226;28;20194;-41
2024/02/01 08:20:23;;;;;;;37.72;5.97;;;5.70;99.90;;;;;;5059290;28;20188;-43
2024/02/01 08:22:49;;;;;;;43.65;6.38;;;5.70;99.90;;;;;;5060871;28;20190;-47
2024/02/01 08:25:19;;;;;;;50.58;6.32;;;5.70;99.90;;;;;;5059932;28;20203;-40
2024/02/01 08:27:54;;;;;;;38.35;6.03;;;5.80;99.90;;;;;;5061752;28;20255;-43
2024/02/01 08:30:21;;;;;;;43.55;6.57;;;5.80;99.90;;;;;;5060444;28;20245;-46
2024/02/01 08:32:48;;;;;;;49.13;6.78;;;5.80;99.90;;;;;;5060732;28;20548;-41
2024/02/01 08:35:14;;;;;;;40.72;6.22;;;5.80;99.90;;;;;;5060571;28;20249;-47
2024/02/01 08:37:40;;;;;;;49.10;6.25;;;5.90;99.90;;;;;;5061463;28;20293;-44
2024/02/01 08:40:17;;;;;;;44.08;6.10;;;5.90;99.90;;;;;;5061542;28;20829;-43
2024/02/01 08:42:48;;;;;;;38.88;5.72;;;6.00;99.90;;;;;;5059752;28;20243;-46
2024/02/01 08:45:16;;;;;;;35.15;5.63;;;6.00;99.90;;;;;;5060738;28;20194;-44
2024/02/01 08:47:43;;;;;;;47.72;6.00;;;6.00;99.90;;;;;;5060839;28;20189;-41
2024/02/01 08:50:10;;;;;;;42.85;5.78;;;6.00;99.90;;;;;;5061169;28;20752;-45
2024/02/01 08:52:45;;;;;;;41.05;5.78;;;6.10;99.90;;;;;;5060053;28;20191;-44
2024/02/01 08:55:20;;;;;;;40.17;5.68;;;6.10;99.90;;;;;;5058470;28;20214;-40
2024/02/01 08:57:46;;;;;;;48.47;6.45;;;6.20;99.90;;;;;;5061289;28;20181;-39
2024/02/01 09:00:26;;;;;;;48.35;6.47;;;6.20;99.90;;;;;;5060857;28;20749;-46
2024/02/01 09:03:03;;;;;;;46.28;6.90;;;6.20;99.90;;;;;;5060407;28;20261;-43
2024/02/01 09:05:49;;;;;;;37.22;5.35;;;6.20;99.90;;;;;;5060724;28;20186;-44
2024/02/01 09:08:36;;;;;;;38.55;5.93;;;6.30;99.90;;;;;;5060658;28;20264;-41
2024/02/01 09:11:11;;;;;;;41.60;6.30;;;6.30;99.90;;;;;;5059235;28;20183;-42
2024/02/01 09:13:43;;;;;;;41.83;5.63;;;6.40;99.90;;;;;;5060508;28;20202;-43
2024/02/01 09:16:13;;;;;;;59.83;6.68;;;6.40;99.90;;;;;;5059862;28;20305;-44
2024/02/01 09:18:39;;;;;;;46.00;6.22;;;6.40;99.90;;;;;;5061241;28;20521;-47
2024/02/01 09:21:05;;;;;;;45.20;6.47;;;6.50;99.90;;;;;;5058261;28;20540;-43
2024/02/01 09:23:30;;;;;;;46.08;6.15;;;6.50;99.90;;;;;;5059770;28;20183;-43
2024/02/01 09:25:56;;;;;;;51.92;6.50;;;6.50;99.90;;;;;;5060921;28;20654;-42
2024/02/01 09:28:22;;;;;;;45.67;5.85;;;6.60;99.90;;;;;;5061010;28;20201;-45
2024/02/01 09:30:51;;;;;;;51.28;6.43;;;6.60;99.90;;;;;;5059705;28;20201;-44
2024/02/01 09:33:23;;;;;;;45.55;6.57;;;6.70;99.90;;;;;;5060265;28;20652;-45
2024/02/01 09:35:49;;;;;;;51.80;6.57;;;6.70;99.90;;;;;;5060331;28;20305;-41
2024/02/01 09:38:17;;;;;;;56.58;6.78;;;6.70;99.90;;;;;;5060514;28;20292;-42
2024/02/01 09:40:43;;;;;;;45.67;6.05;;;6.80;99.90;;;;;;5060407;28;20625;-45
2024/02/01 09:43:22;;;;;;;39.38;6.32;;;6.80;99.90;;;;;;5060475;28;20198;-41
2024/02/01 09:45:49;;;;;;;51.05;5.70;;;6.90;99.90;;;;;;5059966;28;20194;-45
2024/02/01 09:48:16;;;;;;;42.95;5.68;;;6.90;99.90;;;;;;5058152;28;20209;-44
2024/02/01 09:50:51;;;;;;;44.38;5.95;;;7.00;99.90;;;;;;5059774;28;20186;-43
2024/02/01 09:53:21;;;;;;;49.05;6.55;;;7.10;99.90;;;;;;5059953;28;20953;-43
2024/02/01 09:55:53;;;;;;;44.30;6.32;;;7.10;99.90;;;;;;5059426;28;20213;-44
2024/02/01 09:58:20;;;;;;;42.60;6.32;;;7.20;99.90;;;;;;5059866;28;20229;-54
2024/02/01 10:00:47;;;;;;;43.22;5.68;;;7.20;99.90;;;;;;5060059;28;20222;-43
2024/02/01 10:03:14;;;;;;;45.55;6.35;;;7.30;99.90;;;;;;5062151;28;20186;-41
2024/02/01 10:05:43;;;;;;;40.20;5.82;;;7.30;99.90;;;;;;5063833;28;20218;-47
2024/02/01 10:08:13;;;;;;;49.28;6.38;;;7.40;99.90;;;;;;5064053;28;20190;-43
2024/02/01 10:10:44;;;;;;;55.53;6.78;;;7.40;99.90;;;;;;5063214;28;20232;-39
2024/02/01 10:13:16;;;;;;;41.22;5.70;;;7.50;99.90;;;;;;5061768;28;20190;-51
2024/02/01 10:15:43;;;;;;;47.30;6.70;;;7.50;99.90;;;;;;5061379;28;20313;-40
2024/02/01 10:18:17;;;;;;;42.15;6.28;;;7.60;99.90;;;;;;5064325;28;20193;-47
2024/02/01 10:20:53;;;;;;;40.88;7.03;;;7.60;99.90;;;;;;5063383;28;20222;-43
2024/02/01 10:23:19;;;;;;;36.05;5.43;;;7.70;99.90;;;;;;5044324;28;20198;-43
2024/02/01 10:25:49;;;;;;;49.55;6.07;;;7.70;99.90;;;;;;5062495;28;20194;-45
2024/02/01 10:28:19;;;;;;;45.65;5.85;;;7.80;99.90;;;;;;5062241;28;20264;-41
2024/02/01 10:30:46;;;;;;;38.33;5.75;;;7.80;99.90;;;;;;5062203;28;20651;-42
2024/02/01 10:33:14;;;;;;;40.22;5.80;;;7.80;99.90;;;;;;5062397;28;20195;-44
2024/02/01 10:35:41;;;;;;;35.45;5.32;;;7.90;99.90;;;;;;5062276;28;20221;-44
2024/02/01 10:38:12;;;;;;;42.60;6.50;;;8.00;99.90;;;;;;5061114;28;20194;-41
2024/02/01 10:40:58;;;;;;;34.83;6.05;;;8.00;99.90;;;;;;5078165;28;20194;-41
2024/02/01 10:43:30;;;;;;;51.22;6.45;;;8.00;99.90;;;;;;5062073;28;20217;-47
2024/02/01 10:46:35;;;;;;;38.30;5.60;;;8.10;99.90;;;;;;5062702;28;20911;-43
2024/02/01 10:49:17;;;;;;;31.88;4.63;;;8.20;99.90;;;;;;5032304;28;20306;-46
2024/02/01 10:51:49;;;;;;;36.33;5.82;;;8.20;99.90;;;;;;5062962;28;20193;-51
2024/02/01 10:54:18;;;;;;;47.17;5.50;;;8.30;99.90;;;;;;5061566;28;20224;-44
2024/02/01 10:56:44;;;;;;;35.08;5.50;;;8.30;99.90;;;;;;5062719;28;20187;-40
2024/02/01 10:59:11;;;;;;;46.03;5.63;;;8.40;99.90;;;;;;5063198;28;20191;-40
2024/02/01 11:01:39;;;;;;;46.15;6.07;;;8.50;99.90;;;;;;5063443;28;20244;-44
2024/02/01 11:04:06;;;;;;;36.53;5.88;;;8.50;99.90;;;;;;5078760;28;20677;-40
2024/02/01 11:06:32;;;;;;;35.25;5.13;;;8.60;99.90;;;;;;5063286;28;20182;-40
2024/02/01 11:09:18;;;;;;;34.03;4.80;;;8.70;99.90;;;;;;5063035;28;20344;-40
2024/02/01 11:11:51;;;;;;;40.20;6.55;;;8.70;99.90;;;;;;5047219;28;20178;-46
2024/02/01 11:14:31;;;;;;;43.63;5.63;;;8.70;99.90;;;;;;5062434;28;20241;-43
2024/02/01 11:17:03;;;;;;;42.55;5.53;;;8.80;99.90;;;;;;5061571;28;20194;-41
2024/02/01 11:19:29;;;;;;;28.17;4.45;;;8.70;99.90;;;;;;5062892;28;20190;-46
2024/02/01 11:22:03;;;;;;;51.00;7.47;;;8.70;99.90;;;;;;5062193;28;20244;-45
2024/02/01 11:24:32;;;;;;;40.42;6.40;;;8.70;99.90;;;;;;5062273;28;20204;-48
2024/02/01 11:27:03;;;;;;;37.85;6.97;;;8.70;99.90;;;;;;5062942;28;20182;-41
2024/02/01 11:29:34;;;;;;;31.80;5.35;;;8.70;99.90;;;;;;5062284;28;20281;-44
2024/02/01 11:32:05;;;;;;;36.88;5.60;;;8.60;99.90;;;;;;5062428;28;20203;-46
2024/02/01 11:34:33;;;;;;;39.72;5.20;;;8.60;99.90;;;;;;5061907;28;20293;-43
2024/02/01 11:37:00;;;;;;;38.15;5.25;;;8.70;99.90;;;;;;5062905;28;20244;-43
2024/02/01 11:39:29;;;;;;;46.55;5.75;;;8.70;99.90;;;;;;5060912;28;20277;-41
2024/02/01 11:41:55;;;;;;;34.17;5.32;;;8.70;99.90;;;;;;5062134;28;20186;-43
2024/02/01 11:44:28;;;;;;;38.88;5.05;;;8.70;99.90;;;;;;5062878;28;20199;-46
2024/02/01 11:46:54;;;;;;;43.72;6.47;;;8.60;99.90;;;;;;5062002;28;20182;-46
2024/02/01 11:49:26;;;;;;;44.38;5.38;;;8.70;99.90;;;;;;5062252;28;20194;-45
2024/02/01 11:52:15;;;;;;;45.15;5.20;;;8.70;99.90;;;;;;5062055;28;20221;-47
2024/02/01 11:54:51;;;;;;;32.65;5.13;;;8.70;99.90;;;;;;5061610;28;20810;-46
2024/02/01 11:57:23;;;;;;;37.70;5.70;;;8.70;99.90;;;;;;5062069;28;20666;-43
2024/02/01 11:59:49;;;;;;;34.58;5.57;;;8.70;99.90;;;;;;5061783;28;20744;-41
2024/02/01 12:02:18;;;;;;;38.83;5.30;;;8.70;99.90;;;;;;5060057;28;20187;-46
2024/02/01 12:04:47;;;;;;;25.65;4.57;;;8.70;99.90;;;;;;5062020;28;20647;-44
2024/02/01 12:07:20;;;;;;;32.78;5.25;;;8.70;99.90;;;;;;5062043;28;20256;-40
2024/02/01 12:09:47;;;;;;;31.98;4.60;;;8.70;99.90;;;;;;5062124;28;20662;-48
2024/02/01 12:12:23;;;;;;;37.22;5.35;;;8.70;99.90;;;;;;5061916;28;20209;-41
2024/02/01 12:14:54;;;;;;;28.42;5.05;;;8.70;99.90;;;;;;5061620;28;20242;-42
2024/02/01 12:17:24;;;;;;;30.98;4.90;;;8.70;99.90;;;;;;5061860;28;20235;-48
2024/02/01 12:19:51;;;;;;;27.70;4.88;;;8.80;99.90;;;;;;5077298;28;20202;-47
2024/02/01 12:22:19;;;;;;;30.67;5.15;;;8.80;99.90;;;;;;5061231;28;20197;-41
2024/02/01 12:24:45;;;;;;;29.50;4.57;;;8.80;99.90;;;;;;5062069;28;20218;-40
2024/02/01 12:27:12;;;;;;;30.92;5.15;;;8.80;99.90;;;;;;5061521;28;20214;-39
2024/02/01 12:29:38;;;;;;;29.05;4.57;;;8.80;99.90;;;;;;5061935;28;20730;-46
2024/02/01 12:32:12;;;;;;;33.13;5.05;;;8.80;99.90;;;;;;5061155;28;20285;-47
2024/02/01 12:34:39;;;;;;;31.10;4.32;;;8.80;99.90;;;;;;5061544;28;20250;-43
2024/02/01 12:37:07;;;;;;;33.40;4.95;;;8.90;99.90;;;;;;5061817;28;20191;-43
2024/02/01 12:39:36;;;;;;;31.25;4.28;;;8.90;99.90;;;;;;5061205;28;20194;-41
2024/02/01 12:42:03;;;;;;;40.38;5.63;;;8.90;99.90;;;;;;5059829;28;20239;-45
2024/02/01 12:44:34;;;;;;;30.27;4.80;;;8.80;99.90;;;;;;5061012;28;20206;-45
2024/02/01 12:47:00;;;;;;;30.83;4.53;;;8.90;99.90;;;;;;5044243;28;20672;-43
2024/02/01 12:49:28;;;;;;;33.15;4.90;;;8.90;99.90;;;;;;5061041;28;21155;-44
2024/02/01 12:51:55;;;;;;;27.33;4.57;;;8.90;99.90;;;;;;5060979;28;20318;-40
2024/02/01 12:54:21;;;;;;;26.77;4.88;;;8.90;99.90;;;;;;5060971;28;20229;-46
2024/02/01 12:56:47;;;;;;;35.30;4.78;;;8.90;99.90;;;;;;5060318;28;20712;-44
2024/02/01 12:59:13;;;;;;;44.33;5.80;;;8.90;99.90;;;;;;5060616;28;20191;-40
2024/02/01 13:01:39;;;;;;;30.80;4.40;;;8.90;99.90;;;;;;5075880;28;20190;-44
2024/02/01 13:04:06;;;;;;;29.83;4.82;;;8.90;99.90;;;;;;5060604;28;20206;-40
2024/02/01 13:06:32;;;;;;;19.40;3.78;;;9.00;99.90;;;;;;5060757;28;20182;-45
2024/02/01 13:08:58;;;;;;;27.90;5.00;;;9.00;99.90;;;;;;5060045;28;20647;-41
2024/02/01 13:11:28;;;;;;;32.50;4.72;;;9.00;99.90;;;;;;5060949;28;20190;-48
2024/02/01 13:13:58;;;;;;;26.30;3.80;;;9.00;99.90;;;;;;5057420;28;20269;-46
2024/02/01 13:16:25;;;;;;;24.45;4.65;;;9.00;99.90;;;;;;5060539;28;20628;-43
2024/02/01 13:18:54;;;;;;;30.60;4.68;;;9.00;99.90;;;;;;5060639;28;20281;-44
2024/02/01 13:21:21;;;;;;;37.53;5.25;;;9.00;99.90;;;;;;5058821;28;20283;-39
2024/02/01 13:23:47;;;;;;;31.45;4.90;;;9.00;99.90;;;;;;5060303;28;20182;-42
2024/02/01 13:26:14;;;;;;;31.92;4.85;;;9.00;99.90;;;;;;5060572;28;20201;-47
2024/02/01 13:28:43;;;;;;;30.02;4.63;;;9.00;99.90;;;;;;5060440;28;20193;-46
2024/02/01 13:31:09;;;;;;;33.28;5.25;;;8.90;99.90;;;;;;5060261;28;20190;-46
2024/02/01 13:33:35;;;;;;;32.10;5.13;;;9.00;99.90;;;;;;5059596;28;20785;-43
2024/02/01 13:36:08;;;;;;;35.55;4.85;;;8.90;99.90;;;;;;5060388;28;20864;-48
2024/02/01 13:38:35;;;;;;;21.63;3.92;;;8.90;99.90;;;;;;5059720;28;20187;-45
2024/02/01 13:41:02;;;;;;;34.30;4.60;;;8.90;99.90;;;;;;5059148;28;20281;-45
2024/02/01 13:43:28;;;;;;;33.92;5.53;;;8.90;99.90;;;;;;5059795;28;20198;-42
2024/02/01 13:45:54;;;;;;;30.73;5.05;;;8.90;99.90;;;;;;5060365;28;20244;-48
2024/02/01 13:48:22;;;;;;;37.92;5.30;;;8.90;99.90;;;;;;5056240;28;20571;-47
2024/02/01 13:50:47;;;;;;;21.52;4.25;;;8.90;99.90;;;;;;5044644;28;20209;-40
2024/02/01 13:53:17;;;;;;;36.22;5.18;;;8.90;99.90;;;;;;5058221;28;20190;-45
2024/02/01 13:55:43;;;;;;;32.67;5.05;;;8.90;99.90;;;;;;5057982;28;20676;-46
2024/02/01 13:58:09;;;;;;;37.00;5.65;;;8.80;99.90;;;;;;5059810;28;20661;-43
2024/02/01 14:00:35;;;;;;;26.42;4.40;;;8.80;99.90;;;;;;5058141;28;20194;-42